createdAt,value
2022-11-17T02:13:09.445Z,1.50
2022-11-17T02:15:36.987Z,1.80
2022-11-17T02:18:04.928Z,1.80
2022-11-17T02:21:11.235Z,1.80
2022-11-17T02:24:20.889Z,1.70
2022-11-17T02:27:01.276Z,1.70
2022-11-17T02:29:37.568Z,1.60
2022-11-17T02:32:19.027Z,1.60
2022-11-17T02:35:02.874Z,1.60
2022-11-17T02:37:48.091Z,1.50
2022-11-17T02:40:21.055Z,1.60
2022-11-17T02:43:14.819Z,1.60
2022-11-17T02:45:58.931Z,1.60
2022-11-17T02:48:34.800Z,1.50
2022-11-17T02:51:04.507Z,1.60
2022-11-17T02:53:32.767Z,1.60
2022-11-17T02:56:02.291Z,1.60
2022-11-17T02:58:29.714Z,1.70
2022-11-17T03:00:56.998Z,1.70
2022-11-17T03:03:55.353Z,1.70
2022-11-17T03:06:51.871Z,1.70
2022-11-17T03:09:29.749Z,1.80
2022-11-17T03:12:16.397Z,1.80
2022-11-17T03:15:08.888Z,1.70
2022-11-17T03:17:45.992Z,1.70
2022-11-17T03:20:15.722Z,1.60
2022-11-17T03:22:54.919Z,1.60
2022-11-17T03:25:23.896Z,1.60
2022-11-17T03:27:58.793Z,1.60
2022-11-17T03:30:29.943Z,1.50
2022-11-17T03:33:06.524Z,1.60
2022-11-17T03:35:38.864Z,1.60
2022-11-17T06:22:52.914Z,0.90
2022-11-17T06:25:24.253Z,1.20
2022-11-17T06:27:52.694Z,1.20
2022-11-17T06:30:20.395Z,1.10
2022-11-17T06:32:50.173Z,1.10
2022-11-17T06:35:18.111Z,1.00
2022-11-17T06:37:45.445Z,1.00
2022-11-17T06:40:13.612Z,1.00
2022-11-17T06:42:59.629Z,1.00
2022-11-17T06:45:27.264Z,1.00
2022-11-17T06:47:55.050Z,0.90
2022-11-17T06:50:22.472Z,0.90
2022-11-17T06:52:49.793Z,1.00
2022-11-17T06:55:17.586Z,0.90
2022-11-17T06:57:50.345Z,0.90
2022-11-17T07:00:20.886Z,1.00
2022-11-17T07:02:48.361Z,0.90
2022-11-17T07:05:15.807Z,0.80
2022-11-17T07:07:43.220Z,0.90
2022-11-17T07:10:10.807Z,0.90
2022-11-17T07:12:38.215Z,0.80
2022-11-17T07:15:06.103Z,0.90
2022-11-17T07:17:33.790Z,0.90
2022-11-17T07:20:01.150Z,0.90
2022-11-17T07:22:28.515Z,0.90
2022-11-17T07:24:55.866Z,0.90
2022-11-17T07:27:23.318Z,0.90
2022-11-17T07:29:51.007Z,1.00
2022-11-17T07:32:18.453Z,0.90
2022-11-17T07:34:45.903Z,0.80
2022-11-17T07:37:13.292Z,0.90
2022-11-17T07:39:40.738Z,1.00
2022-11-17T07:42:08.320Z,1.10
2022-11-17T07:44:35.813Z,1.10
2022-11-17T10:16:58.499Z,1.20
2022-11-17T10:19:28.337Z,1.70
2022-11-17T10:22:24.005Z,1.60
2022-11-17T10:24:57.984Z,1.60
2022-11-17T10:27:34.139Z,1.50
2022-11-17T10:30:22.457Z,1.40
2022-11-17T10:32:58.193Z,1.50
2022-11-17T10:35:28.469Z,1.40
2022-11-17T10:38:00.336Z,1.50
2022-11-17T10:40:31.844Z,1.50
2022-11-17T10:43:02.114Z,1.40
2022-11-17T10:45:29.937Z,1.50
2022-11-17T10:48:19.710Z,1.60
2022-11-17T10:51:02.635Z,1.50
2022-11-17T10:53:32.145Z,1.50
2022-11-17T10:56:20.041Z,1.50
2022-11-17T10:59:12.757Z,1.40
2022-11-17T11:01:46.184Z,1.30
2022-11-17T11:04:35.890Z,1.20
2022-11-17T11:07:20.059Z,1.20
2022-11-17T11:10:17.019Z,1.10
2022-11-17T11:13:18.017Z,1.00
2022-11-17T11:15:45.863Z,0.90
2022-11-17T11:18:18.458Z,1.00
2022-11-17T11:20:48.981Z,1.00
2022-11-17T11:23:40.454Z,1.10
2022-11-17T11:26:34.251Z,1.20
2022-11-17T11:29:21.480Z,1.10
2022-11-17T11:32:23.591Z,1.10
2022-11-17T14:20:38.642Z,0.80
2022-11-17T14:23:17.897Z,1.10
2022-11-17T14:25:51.584Z,1.10
2022-11-17T14:28:21.497Z,1.10
2022-11-17T14:30:57.164Z,1.10
2022-11-17T14:33:26.123Z,1.10
2022-11-17T14:35:57.197Z,1.10
2022-11-17T14:38:24.563Z,1.20
2022-11-17T14:40:53.443Z,1.10
2022-11-17T14:43:22.784Z,1.10
2022-11-17T14:45:50.796Z,1.10
2022-11-17T14:48:19.578Z,1.10
2022-11-17T14:50:47.986Z,1.20
2022-11-17T14:53:15.627Z,1.10
2022-11-17T14:55:43.178Z,1.10
2022-11-17T14:58:10.813Z,1.10
2022-11-17T15:00:38.520Z,1.20
2022-11-17T15:03:06.179Z,1.10
2022-11-17T15:05:33.981Z,1.00
2022-11-17T15:08:01.611Z,1.10
2022-11-17T15:10:29.384Z,1.00
2022-11-17T15:12:57.233Z,1.00
2022-11-17T15:15:25.074Z,1.00
2022-11-17T15:17:52.608Z,0.90
2022-11-17T15:20:20.241Z,1.00
2022-11-17T15:22:50.304Z,1.00
2022-11-17T15:25:17.977Z,1.00
2022-11-17T15:27:45.720Z,0.90
2022-11-17T15:30:13.589Z,0.90
2022-11-17T15:32:43.693Z,0.90
2022-11-17T15:35:11.106Z,0.90
2022-11-17T15:37:38.578Z,0.90
2022-11-17T15:40:06.699Z,0.90
2022-11-17T15:42:34.156Z,0.80
2022-11-17T15:45:01.759Z,0.90
2022-11-17T15:47:29.368Z,0.80
2022-11-17T15:49:58.724Z,0.90
2022-11-17T15:52:48.648Z,0.80
2022-11-17T15:55:13.959Z,0.80
2022-11-17T15:57:41.458Z,0.80
2022-11-17T16:00:09.603Z,0.80
2022-11-17T16:02:37.100Z,0.80
2022-11-17T18:23:48.464Z,0.50
2022-11-17T18:26:19.488Z,0.80
2022-11-17T18:29:06.396Z,0.80
2022-11-17T18:31:35.234Z,0.70
2022-11-17T18:34:05.874Z,0.70
2022-11-17T18:36:34.952Z,0.70
2022-11-17T18:39:02.548Z,0.60
2022-11-17T18:41:34.171Z,0.60
2022-11-17T18:44:02.115Z,0.60
2022-11-17T18:46:31.877Z,0.60
2022-11-17T18:49:00.453Z,0.70
2022-11-17T18:51:30.039Z,0.60
2022-11-17T18:54:02.618Z,0.60
2022-11-17T18:56:36.429Z,0.60
2022-11-17T18:59:15.305Z,0.60
2022-11-17T19:01:43.428Z,0.60
2022-11-17T19:04:13.799Z,0.50
2022-11-17T19:06:41.272Z,0.50
2022-11-17T19:09:08.943Z,0.40
2022-11-17T19:11:36.369Z,0.50
2022-11-17T19:14:06.927Z,0.50
2022-11-17T19:16:44.428Z,0.50
2022-11-17T19:19:13.868Z,0.40
2022-11-17T19:21:41.968Z,0.40
2022-11-17T19:24:09.400Z,0.40
2022-11-17T19:26:37.079Z,0.50
2022-11-17T19:29:12.641Z,0.50
2022-11-17T19:31:43.232Z,0.60
2022-11-17T19:34:10.713Z,0.50
2022-11-17T19:36:38.247Z,0.50
2022-11-17T19:39:05.949Z,0.50
2022-11-17T19:41:37.157Z,0.60
2022-11-17T19:44:07.342Z,0.50
2022-11-17T19:46:36.550Z,0.40
2022-11-17T19:49:06.232Z,0.50
2022-11-17T19:51:37.178Z,0.50
2022-11-17T19:54:08.992Z,0.40
2022-11-17T19:56:36.812Z,0.40
2022-11-17T19:59:05.051Z,0.40
2022-11-17T20:01:33.582Z,0.40
2022-11-17T21:47:17.806Z,0.10
2022-11-17T21:49:45.735Z,0.30
2022-11-17T21:52:13.183Z,0.40
2022-11-17T21:54:41.570Z,0.40
2022-11-17T21:57:09.057Z,0.30
2022-11-17T21:59:36.556Z,0.30
2022-11-17T22:02:04.170Z,0.30
2022-11-17T22:04:31.612Z,0.30
2022-11-17T22:06:59.129Z,0.30
2022-11-17T22:09:26.623Z,0.30
2022-11-17T22:11:55.820Z,0.40
2022-11-17T22:14:23.334Z,0.40
2022-11-17T22:16:52.431Z,0.30
2022-11-17T22:19:21.767Z,0.30
2022-11-17T22:21:51.521Z,0.30
2022-11-17T22:24:19.523Z,0.20
2022-11-17T22:26:47.771Z,0.30
2022-11-17T22:29:21.470Z,0.30
2022-11-17T22:31:49.631Z,0.30
2022-11-17T22:34:18.180Z,0.30
2022-11-17T22:36:45.786Z,0.30
2022-11-17T22:39:13.447Z,0.30
2022-11-17T22:41:40.948Z,0.30
2022-11-17T22:44:12.314Z,0.30
2022-11-17T22:46:40.770Z,0.30
2022-11-17T22:49:08.361Z,0.30
2022-11-17T22:51:54.381Z,0.20
2022-11-17T22:54:21.916Z,0.30
2022-11-17T22:56:49.374Z,0.30
2022-11-17T22:59:16.993Z,0.20
2022-11-17T23:01:44.640Z,0.20
2022-11-17T23:04:12.507Z,0.20
2022-11-17T23:06:39.980Z,0.20
2022-11-17T23:09:07.604Z,0.20
2022-11-17T23:11:38.020Z,0.30
2022-11-17T23:14:07.811Z,0.30
2022-11-17T23:16:36.917Z,0.30
2022-11-17T23:19:05.564Z,0.30
2022-11-17T23:21:33.230Z,0.30
2022-11-17T23:24:00.782Z,0.30
2022-11-17T23:26:28.291Z,0.30
2022-11-17T23:28:55.813Z,0.30
2022-11-17T23:31:23.349Z,0.30
2022-11-17T23:33:50.978Z,0.30
2022-11-17T23:36:20.893Z,0.20
2022-11-17T23:38:50.357Z,0.30
2022-11-17T23:41:19.653Z,0.30
2022-11-17T23:43:51.149Z,0.30
2022-11-17T23:46:20.931Z,0.30
2022-11-17T23:48:48.733Z,0.20
2022-11-17T23:51:21.989Z,0.20
2022-11-17T23:53:49.850Z,0.30
2022-11-17T23:56:19.645Z,0.30
2022-11-17T23:58:47.097Z,0.30
